FMNAFMEE

Guest
Details From FMNA - Arrachart
To FMEE - St Denis Gillot
Flight Number -
Tags Generated
Created
Modified
Stats Distance 625 nm / 1,158 km
Max Altitude 0 ft / 0 m
Waypoints 3
Social Downloads 0
Likes 0
Share VATSIM

Download

Looking for another format? Having issues loading an existing format? Contact us
Advertisement - Login to hide

Notes

Generated

Route

FMNA SDG01 FMEE

ID Type Via Altitude Latitude Longitude Leg Dist Tot Dist Heading (true) Name
O FMNA APT - 0 ft / 0 m -12.34562˚ 49.28606˚ - 0 nm - ARRACHART
SDG01 FIX - 0 ft / 0 m -20.87776˚ 55.49366˚ 624 nm 624 nm 146° / 144° -
O FMEE APT - 0 ft / 0 m -20.88418˚ 55.50412˚ 0 nm 625 nm 123° / 123° -

Altitude Profile

Advertisement - Login to hide

Weather


0- 5 10 15 20 25 30 35+ Temperature / ° C

Clouds and Precipitation
Forecast for 2017-12-12 12:00 UTC. Updated an hour ago

Ground ~20,000 ft ~40,000 ft Winds

FMNA

Details ICAO FMNA (DIE)
Name ARRACHART
Region Comoros, Mayotte, Réunion and Madagascar
Timezone Indian/Antananarivo (UTC+3.0)
Stats Elevation 374 ft / 114 m (AMSL)
Location -12.349400° 49.291747°
Runways 1
Magnetic Variation 8.867° W

METAR

FMNA 121000Z 04010KT 9999 VCSH SCT020CB 33/21 Q1011

Decode

TAF

Not found

Departure Runways

ID Width Length Bearing (true) Bearing (mag) Surface Threshold Offset Overrun Length
13 98 ft / 30 m 4,907 ft / 1,496 m 124.22° 133.09° Asphalt 0 ft / 0 m 100 ft / 30 m
31 98 ft / 30 m 4,907 ft / 1,496 m 304.22° 313.09° Asphalt 0 ft / 0 m 100 ft / 30 m

FMEE

Details ICAO FMEE (RUN)
Name St Denis Gillot
Region Comoros, Mayotte, Réunion and Madagascar
Timezone Indian/Reunion (UTC+4.0)
Stats Elevation 66 ft / 20 m (AMSL)
Location -20.889313° 55.517752°
Runways 2
Magnetic Variation 18.981° W

METAR

FMEE 121000Z 06011KT 9999 FEW033 BKN230 31/22 Q1014 NOSIG

Decode

TAF

TAF FMEE 120500Z 1206/1312 05008KT 9999 FEW030 BKN300 BECMG 1216/1218 15005KT PROB40 TEMPO 1218/1306 4000 SHRA SCT020TCU BECMG 1304/1306 07012KT BECMG 1308/1310 FEW020TCU

Decode

Destination Runways

ID Width Length Bearing (true) Bearing (mag) Surface Threshold Offset Overrun Length
12 148 ft / 45 m 10,581 ft / 3,225 m 102.26° 121.24° Asphalt 397 ft / 121 m 148 ft / 45 m
14 148 ft / 45 m 8,842 ft / 2,695 m 116.55° 135.53° Asphalt 338 ft / 103 m 98 ft / 30 m
30 148 ft / 45 m 10,581 ft / 3,225 m 282.25° 301.23° Asphalt 0 ft / 0 m 0 ft / 0 m
32 148 ft / 45 m 8,842 ft / 2,695 m 296.54° 315.52° Asphalt 1,175 ft / 358 m 377 ft / 115 m

Approach Navaids

Runway Type Ident Frequency Range Bearing (true) Bearing (mag) Slope Elevation
14 Localiser SD 110.30 MHz 18 nm / 33 km 116.63° 135.61° - 66 ft / 20 m (AMSL)
14 Glidescope SD 110.30 MHz 10 nm / 19 km 116.55° 135.53° 3.00° 46 ft / 14 m (AMSL)
14 DME SD 110.30 MHz 18 nm / 33 km - - - 46 ft / 14 m (AMSL)

Popular Alternatives